createdAt,value
2023-05-11T00:06:55.192Z,25.42
2023-05-11T00:16:57.203Z,28.73
2023-05-11T00:26:59.309Z,25.37
2023-05-11T00:37:01.323Z,29.33
2023-05-11T00:47:03.873Z,31.90
2023-05-11T00:57:06.150Z,36.03
2023-05-11T01:07:19.656Z,30.65
2023-05-11T01:17:36.059Z,25.67
2023-05-11T01:28:10.527Z,31.27
2023-05-11T01:38:14.628Z,28.73
2023-05-11T01:48:19.211Z,31.03
2023-05-11T01:58:21.752Z,28.27
2023-05-11T02:08:25.646Z,25.73
2023-05-11T02:18:28.457Z,31.97
2023-05-11T02:28:34.800Z,32.80
2023-05-11T02:38:39.011Z,28.08
2023-05-11T02:48:47.351Z,33.60
2023-05-11T02:58:51.421Z,36.70
2023-05-11T03:08:57.835Z,36.33
2023-05-11T03:19:02.134Z,37.20
2023-05-11T03:29:07.419Z,35.67
2023-05-11T03:39:11.538Z,33.17
2023-05-11T03:49:15.611Z,34.38
2023-05-11T03:59:18.180Z,31.80
2023-05-11T04:09:20.293Z,37.00
2023-05-11T04:19:22.491Z,34.80
2023-05-11T04:29:25.077Z,37.70
2023-05-11T04:39:27.086Z,37.47
2023-05-11T04:49:29.304Z,37.47
2023-05-11T04:59:31.509Z,38.57
2023-05-11T05:09:33.668Z,41.57
2023-05-11T05:19:35.937Z,36.03
2023-05-11T05:29:38.254Z,36.72
2023-05-11T05:39:40.994Z,40.47
2023-05-11T05:49:43.172Z,43.53
2023-05-11T05:59:45.349Z,44.50
2023-05-11T06:09:48.275Z,46.63
2023-05-11T06:19:50.445Z,48.80
2023-05-11T06:29:57.642Z,47.72
2023-05-11T06:40:03.184Z,45.88
2023-05-11T06:50:05.922Z,40.78
2023-05-11T07:00:08.867Z,38.90
2023-05-11T07:10:10.960Z,38.97
2023-05-11T07:20:13.354Z,35.70
2023-05-11T07:30:17.345Z,34.77
2023-05-11T07:40:20.965Z,36.15
2023-05-11T07:50:24.683Z,37.37
2023-05-11T08:00:27.565Z,34.83
2023-05-11T08:10:29.629Z,28.52
2023-05-11T08:20:31.648Z,34.17
2023-05-11T08:30:33.825Z,32.10
2023-05-11T08:40:36.265Z,28.00
2023-05-11T08:50:38.399Z,26.58
2023-05-11T09:00:45.321Z,26.98
2023-05-11T09:11:06.517Z,25.30
2023-05-11T09:21:08.748Z,23.90
2023-05-11T09:31:10.782Z,23.45
2023-05-11T09:41:19.954Z,20.23
2023-05-11T09:51:32.358Z,15.77
2023-05-11T10:01:34.923Z,14.35
2023-05-11T10:11:38.743Z,15.55
2023-05-11T10:21:41.120Z,12.48
2023-05-11T10:31:44.439Z,14.13
2023-05-11T10:41:55.705Z,11.48
2023-05-11T10:52:09.479Z,10.18
2023-05-11T11:02:11.814Z,10.75
2023-05-11T11:12:14.326Z,10.95
2023-05-11T11:22:34.987Z,9.73
2023-05-11T11:32:37.385Z,9.82
2023-05-11T11:42:41.961Z,10.05
2023-05-11T11:52:44.072Z,8.68
2023-05-11T12:02:46.320Z,13.45
2023-05-11T12:12:50.558Z,9.32
2023-05-11T12:22:53.560Z,9.70
2023-05-11T12:32:57.491Z,11.15
2023-05-11T12:43:00.587Z,13.48
2023-05-11T12:53:19.062Z,13.18
2023-05-11T13:03:25.899Z,11.40
2023-05-11T13:13:28.756Z,14.93
2023-05-11T13:23:31.847Z,15.25
2023-05-11T13:33:34.543Z,16.10
2023-05-11T13:43:36.622Z,10.13
2023-05-11T13:53:38.675Z,11.18
2023-05-11T14:03:40.817Z,10.85
2023-05-11T14:13:42.936Z,12.57
2023-05-11T14:23:56.834Z,12.18
2023-05-11T14:34:06.558Z,13.30
2023-05-11T14:44:09.923Z,10.77
2023-05-11T14:54:11.972Z,10.17
2023-05-11T15:04:15.584Z,14.67
2023-05-11T15:14:17.840Z,13.33
2023-05-11T15:24:19.996Z,6.57
2023-05-11T15:34:22.089Z,7.65
2023-05-11T15:44:24.349Z,7.73
2023-05-11T15:54:26.909Z,9.90
2023-05-11T16:04:28.950Z,8.25
2023-05-11T16:14:31.308Z,10.45
2023-05-11T16:24:34.609Z,6.72
2023-05-11T16:34:36.988Z,6.78
2023-05-11T16:44:39.167Z,10.82
2023-05-11T16:54:41.374Z,5.30
2023-05-11T17:04:43.498Z,5.55
2023-05-11T17:14:45.533Z,2.92
2023-05-11T17:24:47.623Z,1.97
2023-05-11T17:34:49.708Z,3.47
2023-05-11T17:44:51.898Z,2.67
2023-05-11T17:54:54.101Z,3.27
2023-05-11T18:04:56.314Z,3.70
2023-05-11T18:14:59.737Z,3.90
2023-05-11T18:25:02.366Z,6.13
2023-05-11T18:35:04.734Z,5.60
2023-05-11T18:45:07.723Z,6.60
2023-05-11T18:55:10.215Z,7.57
2023-05-11T19:05:12.770Z,7.63
2023-05-11T19:15:15.290Z,8.83
2023-05-11T19:25:17.610Z,10.48
2023-05-11T19:35:20.315Z,10.57
2023-05-11T19:45:22.341Z,11.45
2023-05-11T19:55:24.380Z,11.88
2023-05-11T20:05:26.809Z,11.90
2023-05-11T20:15:28.832Z,14.93
2023-05-11T20:25:30.907Z,14.48
2023-05-11T20:35:33.860Z,16.58
2023-05-11T20:45:36.166Z,19.10
2023-05-11T20:55:38.221Z,16.70
2023-05-11T21:05:40.586Z,16.23
2023-05-11T21:15:42.675Z,18.20
2023-05-11T21:25:44.774Z,16.73
2023-05-11T21:35:47.639Z,16.50
2023-05-11T21:45:50.302Z,16.73
2023-05-11T21:55:52.376Z,16.37
2023-05-11T22:05:54.405Z,16.67
2023-05-11T22:15:56.536Z,16.67
2023-05-11T22:25:58.687Z,15.07
2023-05-11T22:36:00.842Z,18.27
2023-05-11T22:46:04.038Z,10.48
2023-05-11T22:56:07.298Z,11.37
2023-05-11T23:06:09.496Z,18.67
2023-05-11T23:16:11.840Z,22.80
2023-05-11T23:26:13.913Z,17.58
2023-05-11T23:36:16.226Z,20.40
2023-05-11T23:46:18.298Z,21.43
2023-05-11T23:56:20.350Z,26.27
